Time;durP1;ratioP1;P1;durP2;ratioP2;P2;SDS_P1;SDS_P2;PMS_P1;PMS_P2;Temp;Humidity;BMP_temperature;BMP_pressure;BME280_temperature;BME280_humidity;BME280_pressure;Samples;Min_cycle;Max_cycle;Signal;HPM_P1;HPM_P2
2021/12/11 00:01:44;;;;;;;52.43;22.37;;;1.40;99.90;;;;;;5053186;28;20210;-77
2021/12/11 00:04:14;;;;;;;44.17;21.97;;;1.40;99.90;;;;;;5051786;28;20731;-79
2021/12/11 00:06:44;;;;;;;51.27;22.63;;;1.50;99.90;;;;;;5053100;28;20770;-77
2021/12/11 00:09:18;;;;;;;47.27;21.23;;;1.50;99.90;;;;;;5072785;28;20214;-74
2021/12/11 00:11:47;;;;;;;42.50;19.87;;;1.50;99.90;;;;;;5075198;28;20178;-77
2021/12/11 00:14:15;;;;;;;50.63;21.53;;;1.50;99.90;;;;;;5050565;28;20189;-79
2021/12/11 00:16:41;;;;;;;49.30;21.93;;;1.50;99.90;;;;;;5052940;28;20223;-77
2021/12/11 00:19:11;;;;;;;43.50;20.27;;;1.60;99.90;;;;;;5072597;28;20198;-77
2021/12/11 00:21:39;;;;;;;40.57;19.43;;;1.60;99.90;;;;;;5052857;28;20203;-78
2021/12/11 00:24:19;;;;;;;38.80;19.10;;;1.60;99.90;;;;;;5073156;28;20729;-78
2021/12/11 00:26:52;;;;;;;40.90;20.00;;;1.50;99.90;;;;;;5053532;28;20180;-77
2021/12/11 00:29:24;;;;;;;39.57;18.87;;;1.50;99.90;;;;;;5081604;28;20331;-76
2021/12/11 00:31:54;;;;;;;43.40;20.97;;;1.50;99.90;;;;;;5089323;28;20236;-77
2021/12/11 00:34:22;;;;;;;39.63;20.73;;;1.60;99.90;;;;;;5047159;28;20194;-75
2021/12/11 00:36:54;;;;;;;44.13;20.50;;;1.50;99.90;;;;;;5045662;28;20242;-77
2021/12/11 00:39:20;;;;;;;46.77;21.10;;;1.60;99.90;;;;;;5069818;28;20290;-75
2021/12/11 00:41:52;;;;;;;43.40;21.83;;;1.60;99.90;;;;;;5071825;28;20219;-76
2021/12/11 00:44:19;;;;;;;45.07;21.37;;;1.50;99.90;;;;;;5074632;28;20205;-77
2021/12/11 00:46:44;;;;;;;47.90;21.10;;;1.60;99.90;;;;;;5073347;28;20166;-79
2021/12/11 00:49:24;;;;;;;50.20;22.60;;;1.60;99.90;;;;;;5072671;28;20226;-80
2021/12/11 00:51:53;;;;;;;49.07;22.07;;;1.60;99.90;;;;;;5059430;28;20274;-75
2021/12/11 00:54:19;;;;;;;45.20;21.70;;;1.60;99.90;;;;;;5071838;28;20181;-77
2021/12/11 00:56:46;;;;;;;46.93;23.00;;;1.60;99.90;;;;;;5072251;28;20313;-78
2021/12/11 00:59:17;;;;;;;47.47;21.57;;;1.50;99.90;;;;;;5049661;28;20240;-82
2021/12/11 01:01:55;;;;;;;51.37;22.50;;;1.50;99.90;;;;;;5086213;28;20695;-83
2021/12/11 01:04:28;;;;;;;49.37;22.70;;;1.50;99.90;;;;;;5068199;28;20555;-74
2021/12/11 01:07:00;;;;;;;45.43;21.43;;;1.40;99.90;;;;;;5072012;28;20170;-77
2021/12/11 01:09:48;;;;;;;48.47;22.30;;;1.50;99.90;;;;;;5050904;28;20225;-77
2021/12/11 01:12:23;;;;;;;48.10;22.17;;;1.60;99.90;;;;;;5044874;28;20182;-76
2021/12/11 01:15:02;;;;;;;41.33;19.53;;;1.70;99.90;;;;;;5070474;28;20249;-78
2021/12/11 01:17:45;;;;;;;45.70;21.47;;;1.70;99.90;;;;;;5071619;28;20703;-77
2021/12/11 01:20:20;;;;;;;45.23;21.23;;;1.70;99.90;;;;;;5083012;28;20193;-77
2021/12/11 01:22:47;;;;;;;42.47;20.77;;;1.70;99.90;;;;;;5092173;28;20173;-77
2021/12/11 01:25:25;;;;;;;46.40;21.27;;;1.70;99.90;;;;;;5069413;28;20182;-78
2021/12/11 01:28:00;;;;;;;45.33;21.37;;;1.80;99.90;;;;;;5052562;28;20187;-76
2021/12/11 01:30:32;;;;;;;47.83;21.73;;;1.80;99.90;;;;;;5047045;28;20250;-74
2021/12/11 01:32:58;;;;;;;43.13;21.83;;;1.80;99.90;;;;;;5050533;28;20189;-76
2021/12/11 01:35:25;;;;;;;46.93;21.83;;;1.80;99.90;;;;;;5066906;28;20170;-76
2021/12/11 01:38:01;;;;;;;45.63;21.37;;;1.70;99.90;;;;;;5071528;28;20550;-74
2021/12/11 01:40:30;;;;;;;48.10;21.60;;;1.60;99.90;;;;;;5050576;28;20191;-79
2021/12/11 01:42:56;;;;;;;48.57;23.30;;;1.60;99.90;;;;;;5072031;28;20580;-74
2021/12/11 01:45:22;;;;;;;45.20;22.20;;;1.60;99.90;;;;;;5084471;28;20261;-77
2021/12/11 01:47:48;;;;;;;46.97;22.87;;;1.70;99.90;;;;;;5092368;28;20209;-79
2021/12/11 01:50:21;;;;;;;45.30;22.40;;;1.70;99.90;;;;;;5053012;28;20543;-75
2021/12/11 01:52:52;;;;;;;48.60;23.77;;;1.70;99.90;;;;;;5035220;28;20270;-76
2021/12/11 01:55:23;;;;;;;46.20;22.33;;;1.80;99.90;;;;;;5071331;28;20205;-74
2021/12/11 01:57:51;;;;;;;49.20;22.93;;;1.80;99.90;;;;;;5046719;28;20671;-73
2021/12/11 02:00:24;;;;;;;47.17;22.67;;;1.80;99.90;;;;;;5061818;28;20241;-73
2021/12/11 02:02:53;;;;;;;43.30;22.27;;;1.80;99.90;;;;;;5041435;28;20186;-73
2021/12/11 02:05:24;;;;;;;45.83;23.53;;;1.80;99.90;;;;;;5074168;28;20176;-73
2021/12/11 02:07:52;;;;;;;50.73;24.00;;;1.80;99.90;;;;;;5054040;28;20198;-73
2021/12/11 02:10:27;;;;;;;47.47;24.40;;;1.80;99.90;;;;;;5063035;28;20179;-72
2021/12/11 02:12:54;;;;;;;50.80;23.53;;;1.80;99.90;;;;;;5055276;28;20276;-73
2021/12/11 02:15:28;;;;;;;47.73;24.10;;;1.80;99.90;;;;;;5050729;28;20172;-73
2021/12/11 02:18:21;;;;;;;45.47;22.40;;;1.80;99.90;;;;;;5065250;28;20292;-73
2021/12/11 02:21:07;;;;;;;42.97;21.67;;;1.80;99.90;;;;;;5073432;28;20194;-73
2021/12/11 02:23:33;;;;;;;47.53;23.40;;;1.80;99.90;;;;;;5068370;28;20171;-73
2021/12/11 02:26:03;;;;;;;46.77;23.07;;;1.90;99.90;;;;;;5043895;28;20175;-73
2021/12/11 02:28:35;;;;;;;42.87;21.17;;;1.80;99.90;;;;;;5062764;28;20194;-73
2021/12/11 02:31:20;;;;;;;44.33;21.83;;;1.90;99.90;;;;;;5049936;28;20182;-73
2021/12/11 02:33:53;;;;;;;44.93;22.73;;;1.90;99.90;;;;;;5046049;28;20233;-74
2021/12/11 02:36:29;;;;;;;47.77;22.97;;;2.00;99.90;;;;;;5042760;28;20195;-73
2021/12/11 02:39:15;;;;;;;49.70;22.33;;;2.00;99.90;;;;;;5071805;28;20195;-73
2021/12/11 02:41:53;;;;;;;43.97;22.43;;;2.00;99.90;;;;;;5064842;28;20284;-73
2021/12/11 02:44:29;;;;;;;47.33;22.77;;;2.00;99.90;;;;;;5036167;28;20207;-73
2021/12/11 02:47:15;;;;;;;45.60;21.73;;;2.00;99.90;;;;;;5042094;28;20178;-73
2021/12/11 02:49:47;;;;;;;42.30;21.30;;;2.00;99.90;;;;;;5061509;28;20710;-74
2021/12/11 02:52:36;;;;;;;44.90;23.10;;;2.00;99.90;;;;;;5061212;28;20681;-73
2021/12/11 02:55:23;;;;;;;49.93;22.27;;;1.90;99.90;;;;;;5075969;28;20179;-72
2021/12/11 02:57:56;;;;;;;46.67;22.40;;;1.90;99.90;;;;;;5052383;28;20195;-73
2021/12/11 03:00:32;;;;;;;46.97;22.03;;;1.80;99.90;;;;;;5074840;28;20701;-73
2021/12/11 03:03:05;;;;;;;45.63;22.53;;;1.90;99.90;;;;;;5074218;28;20284;-73
2021/12/11 03:05:43;;;;;;;45.40;22.63;;;1.90;99.90;;;;;;5070769;28;20187;-73
2021/12/11 03:08:12;;;;;;;44.77;22.87;;;1.90;99.90;;;;;;5052128;28;20192;-73
2021/12/11 03:10:39;;;;;;;48.57;23.27;;;1.80;99.90;;;;;;5053285;28;20201;-73
2021/12/11 03:13:05;;;;;;;44.43;22.00;;;1.90;99.90;;;;;;5052150;28;20290;-73
2021/12/11 03:15:32;;;;;;;45.83;22.73;;;1.90;99.90;;;;;;5052886;28;20214;-73
2021/12/11 03:17:58;;;;;;;44.20;21.03;;;1.90;99.90;;;;;;5052398;28;20207;-73
2021/12/11 03:20:26;;;;;;;44.40;22.57;;;1.90;99.90;;;;;;5068995;28;20223;-73
2021/12/11 03:22:52;;;;;;;45.60;23.17;;;1.80;99.90;;;;;;5055094;28;20183;-73
2021/12/11 03:25:21;;;;;;;46.67;22.23;;;1.90;99.90;;;;;;5073707;28;20236;-73
2021/12/11 03:27:47;;;;;;;49.87;23.30;;;2.00;99.90;;;;;;5054153;28;20558;-72
2021/12/11 03:30:20;;;;;;;45.87;23.07;;;1.80;99.90;;;;;;5067603;28;20217;-73
2021/12/11 03:32:47;;;;;;;50.07;24.40;;;1.90;99.90;;;;;;5074732;28;20175;-73
2021/12/11 03:35:13;;;;;;;46.97;23.93;;;1.80;99.90;;;;;;5093969;28;20177;-73
2021/12/11 03:37:39;;;;;;;48.90;23.23;;;1.90;99.90;;;;;;5073014;28;20191;-73
2021/12/11 03:40:07;;;;;;;47.30;23.27;;;1.90;99.90;;;;;;5093699;28;20189;-74
2021/12/11 03:42:35;;;;;;;46.07;22.63;;;1.90;99.90;;;;;;5066316;28;20168;-74
2021/12/11 03:45:07;;;;;;;47.07;22.87;;;1.90;99.90;;;;;;5073565;28;20182;-74
2021/12/11 03:50:11;;;;;;;48.97;23.73;;;1.80;99.90;;;;;;5114441;22;20213;-79
2021/12/11 03:52:37;;;;;;;45.43;21.53;;;1.90;99.90;;;;;;5095648;28;20174;-79
2021/12/11 03:55:03;;;;;;;40.93;19.73;;;1.90;99.90;;;;;;5093166;28;20281;-79
2021/12/11 03:57:30;;;;;;;46.40;21.67;;;1.90;99.90;;;;;;5055259;28;20179;-80
2021/12/11 03:59:55;;;;;;;50.07;21.67;;;1.90;99.90;;;;;;5112468;28;20237;-79
2021/12/11 04:02:25;;;;;;;46.97;21.80;;;1.80;99.90;;;;;;5093632;28;20181;-79
2021/12/11 04:04:56;;;;;;;47.73;21.33;;;1.90;99.90;;;;;;5076539;28;20206;-79
2021/12/11 04:07:30;;;;;;;50.30;23.67;;;1.80;99.90;;;;;;5076822;28;20179;-78
2021/12/11 04:09:56;;;;;;;50.43;23.37;;;1.80;99.90;;;;;;5076880;28;20205;-79
2021/12/11 04:12:24;;;;;;;49.30;23.43;;;1.80;99.90;;;;;;5076922;28;20182;-79
2021/12/11 04:14:52;;;;;;;57.73;23.47;;;1.80;99.90;;;;;;5077048;28;20278;-79
2021/12/11 04:17:21;;;;;;;51.90;22.80;;;1.80;99.90;;;;;;5078014;28;20603;-79
2021/12/11 04:19:48;;;;;;;50.90;21.33;;;1.80;99.90;;;;;;5094879;28;20190;-79
2021/12/11 04:22:14;;;;;;;59.40;24.00;;;1.80;99.90;;;;;;5075929;28;20685;-78
2021/12/11 04:24:41;;;;;;;63.20;24.07;;;1.70;99.90;;;;;;5075015;28;20182;-79
2021/12/11 04:27:10;;;;;;;59.50;22.93;;;1.70;99.90;;;;;;5075898;28;20186;-79
2021/12/11 04:29:37;;;;;;;56.57;23.17;;;1.60;99.90;;;;;;5075276;28;20230;-78
2021/12/11 04:32:04;;;;;;;51.27;21.40;;;1.70;99.90;;;;;;5077103;28;20652;-79
2021/12/11 04:34:32;;;;;;;59.40;24.00;;;1.70;99.90;;;;;;5078579;28;20213;-78
2021/12/11 04:37:03;;;;;;;58.73;23.93;;;1.70;99.90;;;;;;5077653;28;20193;-79
2021/12/11 04:39:35;;;;;;;61.70;23.93;;;1.60;99.90;;;;;;5077409;28;20305;-79
2021/12/11 04:42:11;;;;;;;59.83;24.10;;;1.70;99.90;;;;;;5078816;28;20206;-79
2021/12/11 04:44:43;;;;;;;61.73;25.57;;;1.70;99.90;;;;;;5093494;28;20182;-79
2021/12/11 04:47:18;;;;;;;59.83;26.03;;;1.70;99.90;;;;;;5093789;28;20190;-79
2021/12/11 04:50:01;;;;;;;64.37;26.13;;;1.70;99.90;;;;;;5078775;23;20218;-79
2021/12/11 04:52:34;;;;;;;63.70;25.67;;;1.70;99.90;;;;;;5057756;28;20491;-79
2021/12/11 05:00:33;;;;;;;55.83;24.97;;;1.70;99.90;;;;;;5052425;28;20185;-78
2021/12/11 05:03:25;;;;;;;60.13;24.73;;;1.70;99.90;;;;;;5043089;28;20188;-79
2021/12/11 05:06:03;;;;;;;64.17;23.70;;;1.80;99.90;;;;;;5037017;28;20191;-79
2021/12/11 05:11:15;;;;;;;63.47;25.90;;;1.80;99.90;;;;;;5048699;28;20207;-78
2021/12/11 05:13:41;;;;;;;59.50;26.13;;;1.80;99.90;;;;;;5031960;28;20180;-78
2021/12/11 05:16:11;;;;;;;59.13;25.60;;;1.80;99.90;;;;;;5031959;28;20628;-79
2021/12/11 05:18:39;;;;;;;65.47;25.90;;;1.80;99.90;;;;;;5031977;28;20596;-78
2021/12/11 05:21:09;;;;;;;52.50;22.90;;;1.80;99.90;;;;;;5032366;28;20577;-79
2021/12/11 05:23:35;;;;;;;56.93;24.90;;;1.80;99.90;;;;;;5044363;28;20192;-79
2021/12/11 05:26:02;;;;;;;56.33;23.73;;;1.80;99.90;;;;;;5039697;28;20666;-78
2021/12/11 05:28:27;;;;;;;62.77;24.97;;;1.90;99.90;;;;;;5047902;28;20295;-79
2021/12/11 05:30:58;;;;;;;53.30;23.50;;;1.90;99.90;;;;;;5068372;28;20277;-79
2021/12/11 05:33:24;;;;;;;55.27;22.80;;;1.80;99.90;;;;;;5068375;28;20201;-79
2021/12/11 05:35:50;;;;;;;58.23;24.47;;;1.70;99.90;;;;;;5058693;28;20180;-80
2021/12/11 05:38:17;;;;;;;54.80;22.80;;;1.80;99.90;;;;;;5063569;28;20203;-80
2021/12/11 05:40:47;;;;;;;59.53;23.90;;;1.80;99.90;;;;;;5052524;28;20211;-80
2021/12/11 05:43:13;;;;;;;55.07;23.13;;;1.80;99.90;;;;;;5069016;28;20186;-80
2021/12/11 05:45:40;;;;;;;51.13;23.13;;;1.70;99.90;;;;;;5060608;28;20184;-79
2021/12/11 05:48:07;;;;;;;52.43;23.23;;;1.80;99.90;;;;;;5040385;28;20207;-79
2021/12/11 05:50:39;;;;;;;55.20;24.43;;;1.80;99.90;;;;;;5042004;28;20315;-79
2021/12/11 05:53:05;;;;;;;57.30;23.57;;;1.80;99.90;;;;;;5059982;28;20185;-79
2021/12/11 05:55:33;;;;;;;58.57;23.03;;;1.80;99.90;;;;;;5053204;28;20668;-79
2021/12/11 05:58:10;;;;;;;55.07;23.00;;;1.80;99.90;;;;;;5062662;28;20202;-79
2021/12/11 06:00:40;;;;;;;56.13;22.23;;;1.80;99.90;;;;;;5039582;28;20211;-78
2021/12/11 06:03:07;;;;;;;57.20;21.73;;;1.80;99.90;;;;;;5043513;28;20241;-79
2021/12/11 06:05:36;;;;;;;57.23;23.90;;;1.80;99.90;;;;;;5052787;28;20183;-80
2021/12/11 06:08:10;;;;;;;53.73;22.97;;;1.90;99.90;;;;;;5066311;22;20237;-79
2021/12/11 06:10:39;;;;;;;52.77;22.07;;;1.90;99.90;;;;;;5076025;28;20190;-79
2021/12/11 06:13:09;;;;;;;53.07;22.83;;;1.80;99.90;;;;;;5092666;28;20198;-79
2021/12/11 06:15:36;;;;;;;51.73;22.70;;;1.90;99.90;;;;;;5073117;28;20191;-78
2021/12/11 06:18:02;;;;;;;53.87;23.27;;;1.90;99.90;;;;;;5073311;28;20278;-80
2021/12/11 06:20:30;;;;;;;58.13;23.70;;;1.90;99.90;;;;;;5073649;28;20213;-79
2021/12/11 06:22:56;;;;;;;50.27;21.63;;;1.90;99.90;;;;;;5074065;28;20182;-80
2021/12/11 06:25:33;;;;;;;50.07;23.03;;;1.90;99.90;;;;;;5073776;28;20186;-79
2021/12/11 06:27:59;;;;;;;54.53;22.87;;;1.90;99.90;;;;;;5089927;28;20181;-80
2021/12/11 06:30:24;;;;;;;45.03;21.10;;;2.00;99.90;;;;;;5093385;28;20173;-80
2021/12/11 06:32:51;;;;;;;50.57;21.33;;;2.00;99.90;;;;;;5094284;28;20181;-79
2021/12/11 06:35:36;;;;;;;50.30;23.00;;;2.00;99.90;;;;;;5093379;28;20264;-78
2021/12/11 06:38:03;;;;;;;51.27;21.17;;;2.00;99.90;;;;;;5093217;28;20221;-79
2021/12/11 06:40:32;;;;;;;47.67;22.07;;;1.90;99.90;;;;;;5111521;28;20240;-78
2021/12/11 06:42:58;;;;;;;51.93;21.97;;;1.80;99.90;;;;;;5093298;28;20661;-78
2021/12/11 06:45:28;;;;;;;55.93;22.37;;;1.90;99.90;;;;;;5093255;28;20173;-78
2021/12/11 06:47:55;;;;;;;52.97;22.83;;;2.00;99.90;;;;;;5086022;28;20177;-76
2021/12/11 06:50:21;;;;;;;47.93;21.00;;;2.00;99.90;;;;;;5085790;28;20178;-78
2021/12/11 06:52:49;;;;;;;45.63;20.00;;;2.00;99.90;;;;;;5082667;28;20656;-79
2021/12/11 06:55:17;;;;;;;49.30;22.23;;;1.80;99.90;;;;;;5076724;28;20187;-79
2021/12/11 06:57:43;;;;;;;48.70;21.83;;;1.80;99.90;;;;;;5091949;28;20177;-78
2021/12/11 07:00:10;;;;;;;49.60;20.87;;;1.80;99.90;;;;;;5097018;28;20191;-79
2021/12/11 07:02:36;;;;;;;55.33;22.93;;;1.70;99.90;;;;;;5115380;28;20601;-79
2021/12/11 07:05:03;;;;;;;50.70;21.63;;;1.80;99.90;;;;;;5097348;28;20182;-79
2021/12/11 07:07:34;;;;;;;52.03;23.10;;;1.80;99.90;;;;;;5098797;28;20174;-78
2021/12/11 07:10:01;;;;;;;54.53;23.13;;;1.80;99.90;;;;;;5107367;22;20226;-79
2021/12/11 07:12:27;;;;;;;54.77;22.13;;;1.80;99.90;;;;;;5097649;28;20174;-79
2021/12/11 07:14:53;;;;;;;60.33;23.50;;;1.90;99.90;;;;;;5100416;28;20180;-79
2021/12/11 07:17:20;;;;;;;55.13;22.17;;;2.00;99.90;;;;;;5113856;28;20256;-78
2021/12/11 07:19:46;;;;;;;55.00;22.40;;;1.90;99.90;;;;;;5093022;28;20197;-79
2021/12/11 07:22:14;;;;;;;58.87;23.23;;;1.90;99.90;;;;;;5092981;28;20206;-79
2021/12/11 07:24:56;;;;;;;57.83;23.23;;;2.00;99.90;;;;;;5093994;28;20192;-78
2021/12/11 07:27:22;;;;;;;55.00;24.07;;;2.00;99.90;;;;;;5094364;28;20630;-78
2021/12/11 07:29:47;;;;;;;55.80;21.33;;;2.00;99.90;;;;;;5091189;28;20202;-78
2021/12/11 07:32:13;;;;;;;59.57;22.70;;;2.00;99.90;;;;;;5072729;28;20182;-79
2021/12/11 07:34:40;;;;;;;55.83;21.70;;;1.90;99.90;;;;;;5077047;28;20202;-79
2021/12/11 07:37:06;;;;;;;54.97;21.57;;;1.90;99.90;;;;;;5094016;28;20542;-79
2021/12/11 07:39:32;;;;;;;53.00;21.23;;;1.90;99.90;;;;;;5073619;28;20209;-80
2021/12/11 07:41:58;;;;;;;59.57;21.07;;;2.00;99.90;;;;;;5107894;28;20210;-81
2021/12/11 07:44:26;;;;;;;57.03;22.00;;;2.00;99.90;;;;;;5090144;28;20189;-81
2021/12/11 07:46:53;;;;;;;55.73;21.27;;;2.00;99.90;;;;;;5089758;28;20178;-80
2021/12/11 07:49:19;;;;;;;52.43;21.80;;;2.10;99.90;;;;;;5081663;28;20203;-81
2021/12/11 07:51:45;;;;;;;52.43;21.87;;;2.10;99.90;;;;;;5087603;28;20267;-80
2021/12/11 07:54:11;;;;;;;52.57;20.57;;;2.10;99.90;;;;;;5105483;28;20596;-80
2021/12/11 07:56:38;;;;;;;55.90;20.87;;;2.10;99.90;;;;;;5105669;28;20216;-80
2021/12/11 07:59:06;;;;;;;49.43;19.80;;;2.10;99.90;;;;;;5085291;28;20570;-80
2021/12/11 08:01:36;;;;;;;48.47;19.37;;;2.00;99.90;;;;;;5104098;28;20210;-80
2021/12/11 08:04:04;;;;;;;43.97;19.20;;;2.00;99.90;;;;;;5088355;28;20558;-81
2021/12/11 08:06:31;;;;;;;45.20;19.33;;;2.00;99.90;;;;;;5087966;28;20600;-81
2021/12/11 08:08:56;;;;;;;40.43;18.27;;;2.00;99.90;;;;;;5088487;28;20224;-81
2021/12/11 08:11:22;;;;;;;51.97;20.70;;;2.00;99.90;;;;;;5086577;28;20185;-80
2021/12/11 08:13:50;;;;;;;45.50;19.47;;;2.00;99.90;;;;;;5108256;28;20182;-80
2021/12/11 08:16:22;;;;;;;46.27;18.07;;;1.90;99.90;;;;;;5111441;28;20183;-79
2021/12/11 08:18:47;;;;;;;45.23;17.73;;;1.90;99.90;;;;;;5100019;28;20216;-80
2021/12/11 08:21:13;;;;;;;43.67;18.00;;;2.00;99.90;;;;;;5091277;28;20218;-79
2021/12/11 08:23:44;;;;;;;44.40;17.17;;;1.90;99.90;;;;;;5101292;28;20238;-79
2021/12/11 08:26:11;;;;;;;41.67;17.07;;;1.90;99.90;;;;;;5090004;28;20206;-79
2021/12/11 08:28:37;;;;;;;37.47;15.80;;;1.90;99.90;;;;;;5087543;28;20684;-83
2021/12/11 08:31:03;;;;;;;38.40;16.57;;;2.00;99.90;;;;;;5097987;28;20185;-80
2021/12/11 08:33:29;;;;;;;35.33;15.70;;;2.00;99.90;;;;;;5098350;28;20183;-82
2021/12/11 08:35:55;;;;;;;33.17;15.57;;;2.00;99.90;;;;;;5085182;28;20215;-81
2021/12/11 08:38:21;;;;;;;29.23;13.73;;;1.90;99.90;;;;;;5090116;28;20206;-79
2021/12/11 08:40:51;;;;;;;26.07;13.10;;;1.90;99.90;;;;;;5102283;28;20236;-79
2021/12/11 08:43:19;;;;;;;26.73;13.10;;;1.80;99.90;;;;;;5104689;28;20178;-80
2021/12/11 08:45:57;;;;;;;25.13;12.87;;;1.90;99.90;;;;;;5063388;28;20173;-79
2021/12/11 08:48:27;;;;;;;26.57;13.80;;;1.90;99.90;;;;;;5083006;28;20228;-80
2021/12/11 08:51:01;;;;;;;25.43;12.73;;;2.00;99.90;;;;;;5100132;28;20273;-79
2021/12/11 08:53:27;;;;;;;27.93;13.37;;;2.00;99.90;;;;;;5078819;28;20186;-80
2021/12/11 08:55:54;;;;;;;28.50;13.40;;;2.10;99.90;;;;;;5095973;28;20197;-79
2021/12/11 08:58:21;;;;;;;30.27;13.00;;;2.00;99.90;;;;;;5076545;28;20208;-79
2021/12/11 09:00:55;;;;;;;32.87;14.67;;;2.10;99.90;;;;;;5075084;28;20210;-79
2021/12/11 09:03:29;;;;;;;31.50;14.57;;;2.00;99.90;;;;;;5091845;28;20231;-78
2021/12/11 09:06:01;;;;;;;27.77;13.37;;;1.90;99.90;;;;;;5094514;28;20263;-78
2021/12/11 09:08:41;;;;;;;33.40;14.30;;;1.90;99.90;;;;;;5091538;28;20308;-78
2021/12/11 09:11:11;;;;;;;34.60;15.23;;;2.00;99.90;;;;;;5081912;28;20229;-78
2021/12/11 09:13:53;;;;;;;33.43;14.57;;;1.90;99.90;;;;;;5092200;28;20882;-78
2021/12/11 09:16:26;;;;;;;27.73;12.97;;;1.90;99.90;;;;;;5072678;28;20187;-79
2021/12/11 09:19:09;;;;;;;31.47;14.87;;;1.90;99.90;;;;;;5092224;28;20198;-80
2021/12/11 09:21:48;;;;;;;28.40;13.10;;;2.00;99.90;;;;;;5091337;28;20215;-80
2021/12/11 09:24:26;;;;;;;26.60;12.67;;;1.90;99.90;;;;;;5073225;28;20214;-80
2021/12/11 09:27:02;;;;;;;28.03;12.47;;;1.80;99.90;;;;;;5083054;28;20280;-79
2021/12/11 09:29:35;;;;;;;25.53;12.57;;;1.90;99.90;;;;;;5087953;28;20196;-80
2021/12/11 09:32:20;;;;;;;23.80;11.97;;;1.90;99.90;;;;;;5094395;28;20184;-79
2021/12/11 09:34:55;;;;;;;25.70;12.70;;;2.00;99.90;;;;;;5056137;28;20580;-80
2021/12/11 09:37:21;;;;;;;24.40;11.27;;;1.90;99.90;;;;;;5060834;28;20185;-79
2021/12/11 09:39:51;;;;;;;25.23;12.57;;;2.00;99.90;;;;;;5077414;28;20210;-79
2021/12/11 09:42:16;;;;;;;20.30;10.53;;;2.10;99.90;;;;;;5077830;28;20202;-80
2021/12/11 09:44:52;;;;;;;20.73;10.77;;;2.10;99.90;;;;;;5078385;28;20267;-80
2021/12/11 09:47:22;;;;;;;26.77;11.47;;;2.10;99.90;;;;;;5077161;28;20177;-79
2021/12/11 09:49:56;;;;;;;27.03;12.13;;;2.30;99.90;;;;;;5066165;22;20732;-72
2021/12/11 09:52:23;;;;;;;23.03;11.57;;;2.30;99.90;;;;;;5033342;28;20182;-71
2021/12/11 09:55:12;;;;;;;25.53;11.87;;;2.40;99.90;;;;;;5050699;28;20183;-72
2021/12/11 09:57:42;;;;;;;24.03;11.13;;;2.20;99.90;;;;;;5038580;28;20188;-71
2021/12/11 10:00:22;;;;;;;28.67;13.30;;;2.20;99.90;;;;;;5050884;28;20221;-71
2021/12/11 10:02:48;;;;;;;28.37;12.83;;;2.20;99.90;;;;;;5033099;28;20191;-72
2021/12/11 10:05:37;;;;;;;28.03;13.07;;;2.20;99.90;;;;;;5050932;28;20202;-72
2021/12/11 10:11:22;;;;;;;23.17;10.80;;;2.40;99.90;;;;;;5051208;28;20236;-71
2021/12/11 10:14:06;;;;;;;22.83;10.17;;;2.30;99.90;;;;;;5050760;28;20274;-72
2021/12/11 10:16:37;;;;;;;22.63;10.97;;;2.30;99.90;;;;;;5050859;28;20195;-71
2021/12/11 10:19:05;;;;;;;20.70;10.30;;;2.50;99.90;;;;;;5050659;28;20206;-72
2021/12/11 10:21:43;;;;;;;22.27;10.60;;;2.50;99.90;;;;;;5050865;28;20195;-71
2021/12/11 10:24:13;;;;;;;18.90;9.77;;;2.30;99.90;;;;;;5036843;28;20175;-71
2021/12/11 10:26:39;;;;;;;23.03;11.73;;;2.30;99.90;;;;;;5054860;28;20172;-72
2021/12/11 10:29:09;;;;;;;21.60;11.83;;;2.40;99.90;;;;;;5054284;28;20212;-72
2021/12/11 10:31:45;;;;;;;20.57;11.37;;;2.20;99.90;;;;;;5054741;28;20187;-71
2021/12/11 10:34:15;;;;;;;24.60;12.43;;;2.20;99.90;;;;;;5047949;28;20175;-72
2021/12/11 10:36:48;;;;;;;24.07;11.73;;;2.20;99.90;;;;;;5048652;28;20238;-72
2021/12/11 10:39:15;;;;;;;24.73;12.10;;;2.10;99.90;;;;;;5054131;28;20691;-74
2021/12/11 10:41:41;;;;;;;22.30;12.17;;;2.20;99.90;;;;;;5054450;28;20199;-72
2021/12/11 10:44:20;;;;;;;24.17;12.53;;;2.30;99.90;;;;;;5054236;28;20184;-73
2021/12/11 10:47:01;;;;;;;27.07;12.50;;;2.40;99.90;;;;;;5034695;28;20218;-72
2021/12/11 10:49:27;;;;;;;24.93;12.90;;;2.30;99.90;;;;;;5038109;28;20219;-68
2021/12/11 10:52:01;;;;;;;25.97;13.07;;;2.30;99.90;;;;;;5036607;28;20180;-74
2021/12/11 10:54:27;;;;;;;28.33;13.47;;;2.10;99.90;;;;;;5036025;28;20202;-75
2021/12/11 10:56:53;;;;;;;23.47;12.90;;;2.20;99.90;;;;;;5050956;28;20615;-76
2021/12/11 10:59:27;;;;;;;28.43;13.63;;;2.20;99.90;;;;;;5048754;28;20812;-76
2021/12/11 11:01:55;;;;;;;27.77;12.67;;;2.30;99.90;;;;;;5047128;28;20682;-76
2021/12/11 11:04:35;;;;;;;25.20;12.93;;;2.30;99.90;;;;;;5049985;28;20652;-76
2021/12/11 11:07:02;;;;;;;28.80;13.87;;;2.20;99.90;;;;;;5028860;28;20214;-76
2021/12/11 11:09:29;;;;;;;26.30;12.93;;;2.30;99.90;;;;;;5049226;28;20273;-73
2021/12/11 11:12:00;;;;;;;27.67;13.83;;;2.50;99.90;;;;;;5054001;28;20184;-75
2021/12/11 11:14:27;;;;;;;24.95;13.75;;;2.70;99.90;;;;;;5036047;28;20502;-76
2021/12/11 11:17:02;;;;;;;21.37;11.53;;;2.80;99.90;;;;;;5036257;28;20179;-75
2021/12/11 11:19:29;;;;;;;32.17;17.10;;;2.80;99.90;;;;;;5035368;28;20195;-73
2021/12/11 11:21:58;;;;;;;25.90;14.00;;;2.80;99.90;;;;;;5053726;28;20230;-73
2021/12/11 11:24:33;;;;;;;20.20;10.80;;;2.70;99.90;;;;;;5053633;28;20207;-74
2021/12/11 11:27:01;;;;;;;21.67;10.90;;;2.50;99.90;;;;;;5052765;28;20192;-72
2021/12/11 11:29:27;;;;;;;19.97;10.13;;;2.50;99.90;;;;;;5043028;28;20208;-73
2021/12/11 11:32:02;;;;;;;19.33;10.73;;;2.40;99.90;;;;;;5050952;28;20691;-72
2021/12/11 11:34:31;;;;;;;21.27;11.53;;;2.20;99.90;;;;;;5033913;28;20175;-72
2021/12/11 11:36:59;;;;;;;17.83;10.83;;;2.20;99.90;;;;;;5035278;28;20180;-71
2021/12/11 11:39:27;;;;;;;20.10;9.73;;;2.30;99.90;;;;;;5053072;28;20199;-72
2021/12/11 11:41:56;;;;;;;20.80;11.90;;;2.30;99.90;;;;;;5053078;28;20249;-74
2021/12/11 11:44:25;;;;;;;22.37;11.20;;;2.40;99.90;;;;;;5053140;28;20172;-74
2021/12/11 11:46:53;;;;;;;20.77;10.97;;;2.30;99.90;;;;;;5053039;28;20175;-74
2021/12/11 11:49:20;;;;;;;24.30;11.13;;;2.30;99.90;;;;;;5052305;28;20203;-74
2021/12/11 11:51:55;;;;;;;20.10;11.13;;;2.40;99.90;;;;;;5035405;28;20691;-74
2021/12/11 11:54:23;;;;;;;19.97;11.60;;;2.30;99.90;;;;;;5035222;28;20659;-76
2021/12/11 11:56:58;;;;;;;20.27;11.70;;;2.30;99.90;;;;;;5034607;28;20193;-72
2021/12/11 11:59:24;;;;;;;23.07;12.20;;;2.30;99.90;;;;;;5043294;28;20214;-73
2021/12/11 12:01:54;;;;;;;23.60;12.07;;;2.40;99.90;;;;;;5052586;28;20295;-72
2021/12/11 12:04:22;;;;;;;23.37;11.83;;;2.40;99.90;;;;;;5034556;28;20610;-71
2021/12/11 12:06:54;;;;;;;23.50;12.00;;;2.50;99.90;;;;;;5034721;28;20231;-72
2021/12/11 12:09:22;;;;;;;26.63;13.50;;;2.50;99.90;;;;;;5035008;28;20277;-74
2021/12/11 12:11:49;;;;;;;22.37;12.10;;;2.60;99.90;;;;;;5034785;28;20189;-73
2021/12/11 12:14:20;;;;;;;24.17;13.63;;;2.50;99.90;;;;;;5052627;28;20188;-74
2021/12/11 12:16:47;;;;;;;21.80;12.37;;;2.30;99.90;;;;;;5052572;28;20182;-73
2021/12/11 12:19:13;;;;;;;24.87;12.87;;;2.40;99.90;;;;;;5051795;28;20211;-72
2021/12/11 12:21:41;;;;;;;22.53;11.67;;;2.50;99.90;;;;;;5052185;28;20200;-73
2021/12/11 12:24:07;;;;;;;22.53;11.47;;;2.40;99.90;;;;;;5034417;28;20304;-72
2021/12/11 12:26:34;;;;;;;22.90;11.67;;;2.40;99.90;;;;;;5052744;28;20772;-73
2021/12/11 12:29:01;;;;;;;23.90;12.33;;;2.40;99.90;;;;;;5051703;28;20188;-74
2021/12/11 12:31:32;;;;;;;20.40;10.90;;;2.40;99.90;;;;;;5034575;28;20273;-76
2021/12/11 12:33:58;;;;;;;22.20;12.13;;;2.40;99.90;;;;;;5052538;28;20217;-73
2021/12/11 12:36:25;;;;;;;25.47;12.93;;;2.40;99.90;;;;;;5051884;28;20178;-71
2021/12/11 12:38:51;;;;;;;23.87;12.23;;;2.40;99.90;;;;;;5034211;28;20200;-71
2021/12/11 12:41:25;;;;;;;24.20;12.53;;;2.40;99.90;;;;;;5052482;28;20192;-72
2021/12/11 12:44:16;;;;;;;22.80;12.17;;;2.40;99.90;;;;;;5053022;28;20744;-71
2021/12/11 12:46:45;;;;;;;25.53;12.50;;;2.40;99.90;;;;;;5032623;28;20184;-72
2021/12/11 12:49:11;;;;;;;24.37;12.83;;;2.40;99.90;;;;;;5051646;28;20677;-69
2021/12/11 12:51:37;;;;;;;25.77;13.10;;;2.40;99.90;;;;;;5052539;28;20172;-68
2021/12/11 12:54:06;;;;;;;27.70;13.10;;;2.30;99.90;;;;;;5052827;28;20187;-70
2021/12/11 12:56:45;;;;;;;24.40;13.00;;;2.20;99.90;;;;;;5052936;28;20179;-70
2021/12/11 12:59:19;;;;;;;23.87;13.07;;;2.30;99.90;;;;;;5052524;28;20293;-71
2021/12/11 13:01:54;;;;;;;20.33;12.00;;;2.40;99.90;;;;;;5052238;28;20210;-72
2021/12/11 13:04:25;;;;;;;24.20;13.13;;;2.50;99.90;;;;;;5029688;28;20268;-71
2021/12/11 13:06:55;;;;;;;25.27;13.87;;;2.40;99.90;;;;;;5028754;28;20184;-72